sensor_id;sensor_type;location;lat;lon;timestamp;P1;durP1;ratioP1;P2;durP2;ratioP2
20306;SDS011;10312;52.434;13.206;2024-03-17T00:01:58;14.23;;;1.83;;
20306;SDS011;10312;52.434;13.206;2024-03-17T00:04:23;13.98;;;1.75;;
20306;SDS011;10312;52.434;13.206;2024-03-17T00:06:49;5.50;;;1.15;;
20306;SDS011;10312;52.434;13.206;2024-03-17T00:09:16;11.77;;;2.15;;
20306;SDS011;10312;52.434;13.206;2024-03-17T00:11:43;12.25;;;1.60;;
20306;SDS011;10312;52.434;13.206;2024-03-17T00:14:10;12.23;;;1.52;;
20306;SDS011;10312;52.434;13.206;2024-03-17T00:16:37;11.30;;;1.60;;
20306;SDS011;10312;52.434;13.206;2024-03-17T00:19:03;16.20;;;1.98;;
20306;SDS011;10312;52.434;13.206;2024-03-17T00:21:28;10.20;;;1.45;;
20306;SDS011;10312;52.434;13.206;2024-03-17T00:23:54;10.93;;;1.77;;
20306;SDS011;10312;52.434;13.206;2024-03-17T00:26:20;10.40;;;1.63;;
20306;SDS011;10312;52.434;13.206;2024-03-17T00:28:46;7.45;;;1.48;;
20306;SDS011;10312;52.434;13.206;2024-03-17T00:31:13;5.75;;;1.58;;
20306;SDS011;10312;52.434;13.206;2024-03-17T00:33:40;15.55;;;2.05;;
20306;SDS011;10312;52.434;13.206;2024-03-17T00:36:07;16.10;;;2.92;;
20306;SDS011;10312;52.434;13.206;2024-03-17T00:38:33;13.90;;;1.73;;
20306;SDS011;10312;52.434;13.206;2024-03-17T00:40:59;13.02;;;2.20;;
20306;SDS011;10312;52.434;13.206;2024-03-17T00:43:24;8.88;;;1.65;;
20306;SDS011;10312;52.434;13.206;2024-03-17T00:45:53;7.88;;;1.15;;
20306;SDS011;10312;52.434;13.206;2024-03-17T00:48:19;11.32;;;2.08;;
20306;SDS011;10312;52.434;13.206;2024-03-17T00:50:45;13.43;;;1.77;;
20306;SDS011;10312;52.434;13.206;2024-03-17T00:53:11;9.75;;;1.70;;
20306;SDS011;10312;52.434;13.206;2024-03-17T00:55:37;12.80;;;2.00;;
20306;SDS011;10312;52.434;13.206;2024-03-17T00:58:03;6.03;;;1.40;;
20306;SDS011;10312;52.434;13.206;2024-03-17T01:00:29;15.48;;;1.85;;
20306;SDS011;10312;52.434;13.206;2024-03-17T01:02:56;8.93;;;1.55;;
20306;SDS011;10312;52.434;13.206;2024-03-17T01:05:21;10.30;;;2.13;;
20306;SDS011;10312;52.434;13.206;2024-03-17T01:07:47;17.13;;;2.40;;
20306;SDS011;10312;52.434;13.206;2024-03-17T01:10:14;11.30;;;1.63;;
20306;SDS011;10312;52.434;13.206;2024-03-17T01:12:45;8.30;;;1.38;;
20306;SDS011;10312;52.434;13.206;2024-03-17T01:15:11;12.20;;;1.83;;
20306;SDS011;10312;52.434;13.206;2024-03-17T01:17:37;9.35;;;1.60;;
20306;SDS011;10312;52.434;13.206;2024-03-17T01:20:03;13.00;;;1.92;;
20306;SDS011;10312;52.434;13.206;2024-03-17T01:22:29;10.65;;;1.35;;
20306;SDS011;10312;52.434;13.206;2024-03-17T01:24:56;6.68;;;1.60;;
20306;SDS011;10312;52.434;13.206;2024-03-17T01:27:22;7.03;;;1.52;;
20306;SDS011;10312;52.434;13.206;2024-03-17T01:29:48;8.93;;;1.48;;
20306;SDS011;10312;52.434;13.206;2024-03-17T01:32:14;10.18;;;1.58;;
20306;SDS011;10312;52.434;13.206;2024-03-17T01:34:40;13.77;;;2.05;;
20306;SDS011;10312;52.434;13.206;2024-03-17T01:37:05;10.77;;;1.67;;
20306;SDS011;10312;52.434;13.206;2024-03-17T01:39:33;8.02;;;1.15;;
20306;SDS011;10312;52.434;13.206;2024-03-17T01:41:58;10.85;;;1.80;;
20306;SDS011;10312;52.434;13.206;2024-03-17T01:44:25;8.93;;;2.10;;
20306;SDS011;10312;52.434;13.206;2024-03-17T01:46:52;11.55;;;1.92;;
20306;SDS011;10312;52.434;13.206;2024-03-17T01:49:18;8.52;;;1.73;;
20306;SDS011;10312;52.434;13.206;2024-03-17T01:51:45;10.25;;;1.90;;
20306;SDS011;10312;52.434;13.206;2024-03-17T01:54:12;10.05;;;1.50;;
20306;SDS011;10312;52.434;13.206;2024-03-17T01:56:38;8.75;;;1.48;;
20306;SDS011;10312;52.434;13.206;2024-03-17T01:59:05;10.68;;;1.95;;
20306;SDS011;10312;52.434;13.206;2024-03-17T02:01:37;9.68;;;1.55;;
20306;SDS011;10312;52.434;13.206;2024-03-17T02:04:04;9.55;;;1.58;;
20306;SDS011;10312;52.434;13.206;2024-03-17T02:06:31;11.05;;;1.35;;
20306;SDS011;10312;52.434;13.206;2024-03-17T02:08:57;7.53;;;1.50;;
20306;SDS011;10312;52.434;13.206;2024-03-17T02:11:24;13.95;;;1.48;;
20306;SDS011;10312;52.434;13.206;2024-03-17T02:13:58;6.78;;;1.55;;
20306;SDS011;10312;52.434;13.206;2024-03-17T02:16:24;9.00;;;1.67;;
20306;SDS011;10312;52.434;13.206;2024-03-17T02:18:56;11.75;;;1.90;;
20306;SDS011;10312;52.434;13.206;2024-03-17T02:21:24;10.43;;;2.65;;
20306;SDS011;10312;52.434;13.206;2024-03-17T02:23:53;9.82;;;1.42;;
20306;SDS011;10312;52.434;13.206;2024-03-17T02:26:20;7.78;;;1.27;;
20306;SDS011;10312;52.434;13.206;2024-03-17T02:28:46;9.05;;;1.33;;
20306;SDS011;10312;52.434;13.206;2024-03-17T02:31:13;7.45;;;1.23;;
20306;SDS011;10312;52.434;13.206;2024-03-17T02:33:43;9.52;;;1.38;;
20306;SDS011;10312;52.434;13.206;2024-03-17T02:36:09;9.95;;;1.70;;
20306;SDS011;10312;52.434;13.206;2024-03-17T02:38:40;8.98;;;1.50;;
20306;SDS011;10312;52.434;13.206;2024-03-17T02:41:24;6.78;;;1.38;;
20306;SDS011;10312;52.434;13.206;2024-03-17T02:43:50;11.63;;;1.52;;
20306;SDS011;10312;52.434;13.206;2024-03-17T02:46:16;8.95;;;1.50;;
20306;SDS011;10312;52.434;13.206;2024-03-17T02:48:46;12.52;;;1.60;;
20306;SDS011;10312;52.434;13.206;2024-03-17T02:51:14;11.10;;;1.63;;
20306;SDS011;10312;52.434;13.206;2024-03-17T02:53:41;12.80;;;2.08;;
20306;SDS011;10312;52.434;13.206;2024-03-17T02:56:08;13.15;;;1.95;;
20306;SDS011;10312;52.434;13.206;2024-03-17T02:58:35;8.82;;;2.05;;
20306;SDS011;10312;52.434;13.206;2024-03-17T03:01:01;15.13;;;1.60;;
20306;SDS011;10312;52.434;13.206;2024-03-17T03:03:28;13.02;;;1.98;;
20306;SDS011;10312;52.434;13.206;2024-03-17T03:05:53;12.98;;;1.92;;
20306;SDS011;10312;52.434;13.206;2024-03-17T03:08:22;13.00;;;1.98;;
20306;SDS011;10312;52.434;13.206;2024-03-17T03:10:48;8.75;;;1.52;;
20306;SDS011;10312;52.434;13.206;2024-03-17T03:13:14;8.52;;;1.23;;
20306;SDS011;10312;52.434;13.206;2024-03-17T03:15:40;10.65;;;1.58;;
20306;SDS011;10312;52.434;13.206;2024-03-17T03:18:05;13.80;;;1.50;;
20306;SDS011;10312;52.434;13.206;2024-03-17T03:20:31;10.38;;;1.73;;
20306;SDS011;10312;52.434;13.206;2024-03-17T03:22:57;12.80;;;3.03;;
20306;SDS011;10312;52.434;13.206;2024-03-17T03:25:23;10.73;;;1.83;;
20306;SDS011;10312;52.434;13.206;2024-03-17T03:27:49;9.57;;;1.77;;
20306;SDS011;10312;52.434;13.206;2024-03-17T03:30:14;10.77;;;1.88;;
20306;SDS011;10312;52.434;13.206;2024-03-17T03:32:41;12.77;;;1.85;;
20306;SDS011;10312;52.434;13.206;2024-03-17T03:35:10;14.25;;;1.92;;
20306;SDS011;10312;52.434;13.206;2024-03-17T03:37:36;12.10;;;2.00;;
20306;SDS011;10312;52.434;13.206;2024-03-17T03:40:03;12.65;;;1.90;;
20306;SDS011;10312;52.434;13.206;2024-03-17T03:42:42;14.32;;;1.90;;
20306;SDS011;10312;52.434;13.206;2024-03-17T03:45:08;7.65;;;1.42;;
20306;SDS011;10312;52.434;13.206;2024-03-17T03:47:38;11.68;;;2.40;;
20306;SDS011;10312;52.434;13.206;2024-03-17T03:50:10;17.85;;;2.20;;
20306;SDS011;10312;52.434;13.206;2024-03-17T03:52:36;11.57;;;2.50;;
20306;SDS011;10312;52.434;13.206;2024-03-17T03:55:03;7.30;;;1.55;;
20306;SDS011;10312;52.434;13.206;2024-03-17T03:57:33;16.05;;;1.65;;
20306;SDS011;10312;52.434;13.206;2024-03-17T04:00:05;12.63;;;1.63;;
20306;SDS011;10312;52.434;13.206;2024-03-17T04:02:41;8.98;;;1.73;;
20306;SDS011;10312;52.434;13.206;2024-03-17T04:05:08;10.50;;;1.95;;
20306;SDS011;10312;52.434;13.206;2024-03-17T04:07:34;14.70;;;1.83;;
20306;SDS011;10312;52.434;13.206;2024-03-17T04:10:01;15.30;;;2.33;;
20306;SDS011;10312;52.434;13.206;2024-03-17T04:12:28;13.05;;;3.10;;
20306;SDS011;10312;52.434;13.206;2024-03-17T04:14:59;17.17;;;3.67;;
20306;SDS011;10312;52.434;13.206;2024-03-17T04:17:25;16.80;;;2.08;;
20306;SDS011;10312;52.434;13.206;2024-03-17T04:19:53;14.27;;;1.83;;
20306;SDS011;10312;52.434;13.206;2024-03-17T04:22:19;15.13;;;2.65;;
20306;SDS011;10312;52.434;13.206;2024-03-17T04:24:46;12.77;;;2.97;;
20306;SDS011;10312;52.434;13.206;2024-03-17T04:27:12;12.45;;;2.22;;
20306;SDS011;10312;52.434;13.206;2024-03-17T04:29:39;16.67;;;2.17;;
20306;SDS011;10312;52.434;13.206;2024-03-17T04:32:06;14.45;;;2.25;;
20306;SDS011;10312;52.434;13.206;2024-03-17T04:34:35;13.30;;;3.15;;
20306;SDS011;10312;52.434;13.206;2024-03-17T04:37:00;13.93;;;2.50;;
20306;SDS011;10312;52.434;13.206;2024-03-17T04:39:26;10.63;;;1.90;;
20306;SDS011;10312;52.434;13.206;2024-03-17T04:41:52;6.32;;;1.48;;
20306;SDS011;10312;52.434;13.206;2024-03-17T04:44:18;24.00;;;2.63;;
20306;SDS011;10312;52.434;13.206;2024-03-17T04:46:44;9.35;;;1.90;;
20306;SDS011;10312;52.434;13.206;2024-03-17T04:49:10;19.27;;;1.80;;
20306;SDS011;10312;52.434;13.206;2024-03-17T04:51:35;11.25;;;1.95;;
20306;SDS011;10312;52.434;13.206;2024-03-17T04:54:01;8.77;;;1.98;;
20306;SDS011;10312;52.434;13.206;2024-03-17T04:56:31;10.32;;;1.88;;
20306;SDS011;10312;52.434;13.206;2024-03-17T04:58:57;8.35;;;2.05;;
20306;SDS011;10312;52.434;13.206;2024-03-17T05:01:22;17.75;;;2.25;;
20306;SDS011;10312;52.434;13.206;2024-03-17T05:03:50;10.77;;;1.73;;
20306;SDS011;10312;52.434;13.206;2024-03-17T05:06:16;10.80;;;2.28;;
20306;SDS011;10312;52.434;13.206;2024-03-17T05:08:42;15.02;;;1.92;;
20306;SDS011;10312;52.434;13.206;2024-03-17T05:11:09;17.02;;;2.50;;
20306;SDS011;10312;52.434;13.206;2024-03-17T05:13:40;13.98;;;2.40;;
20306;SDS011;10312;52.434;13.206;2024-03-17T05:16:06;14.88;;;2.17;;
20306;SDS011;10312;52.434;13.206;2024-03-17T05:18:33;12.50;;;1.58;;
20306;SDS011;10312;52.434;13.206;2024-03-17T05:20:59;12.00;;;1.92;;
20306;SDS011;10312;52.434;13.206;2024-03-17T05:23:26;14.07;;;1.63;;
20306;SDS011;10312;52.434;13.206;2024-03-17T05:25:53;13.95;;;2.20;;
20306;SDS011;10312;52.434;13.206;2024-03-17T05:28:20;9.77;;;1.63;;
20306;SDS011;10312;52.434;13.206;2024-03-17T05:30:46;12.05;;;2.15;;
20306;SDS011;10312;52.434;13.206;2024-03-17T05:33:13;11.40;;;2.58;;
20306;SDS011;10312;52.434;13.206;2024-03-17T05:35:39;9.88;;;1.83;;
20306;SDS011;10312;52.434;13.206;2024-03-17T05:38:05;11.23;;;2.22;;
20306;SDS011;10312;52.434;13.206;2024-03-17T05:40:30;9.07;;;1.63;;
20306;SDS011;10312;52.434;13.206;2024-03-17T05:42:56;6.15;;;1.75;;
20306;SDS011;10312;52.434;13.206;2024-03-17T05:45:22;9.98;;;2.35;;
20306;SDS011;10312;52.434;13.206;2024-03-17T05:47:49;6.78;;;1.67;;
20306;SDS011;10312;52.434;13.206;2024-03-17T05:50:15;14.45;;;1.90;;
20306;SDS011;10312;52.434;13.206;2024-03-17T05:52:41;10.73;;;1.50;;
20306;SDS011;10312;52.434;13.206;2024-03-17T05:55:07;7.28;;;1.60;;
20306;SDS011;10312;52.434;13.206;2024-03-17T05:57:33;15.52;;;2.55;;
20306;SDS011;10312;52.434;13.206;2024-03-17T05:59:58;11.60;;;1.83;;
20306;SDS011;10312;52.434;13.206;2024-03-17T06:02:24;11.00;;;2.58;;
20306;SDS011;10312;52.434;13.206;2024-03-17T06:04:50;16.25;;;2.17;;
20306;SDS011;10312;52.434;13.206;2024-03-17T06:07:16;15.10;;;2.45;;
20306;SDS011;10312;52.434;13.206;2024-03-17T06:09:41;12.60;;;2.42;;
20306;SDS011;10312;52.434;13.206;2024-03-17T06:12:07;16.02;;;2.28;;
20306;SDS011;10312;52.434;13.206;2024-03-17T06:14:33;9.60;;;1.67;;
20306;SDS011;10312;52.434;13.206;2024-03-17T06:16:59;9.05;;;1.52;;
20306;SDS011;10312;52.434;13.206;2024-03-17T06:19:25;16.13;;;2.20;;
20306;SDS011;10312;52.434;13.206;2024-03-17T06:21:51;11.65;;;1.77;;
20306;SDS011;10312;52.434;13.206;2024-03-17T06:24:16;13.32;;;2.15;;
20306;SDS011;10312;52.434;13.206;2024-03-17T06:26:42;20.73;;;2.50;;
20306;SDS011;10312;52.434;13.206;2024-03-17T06:29:08;14.05;;;2.70;;
20306;SDS011;10312;52.434;13.206;2024-03-17T06:31:37;16.27;;;2.15;;
20306;SDS011;10312;52.434;13.206;2024-03-17T06:34:02;17.60;;;2.95;;
20306;SDS011;10312;52.434;13.206;2024-03-17T06:36:29;14.07;;;1.83;;
20306;SDS011;10312;52.434;13.206;2024-03-17T06:38:55;16.35;;;2.17;;
20306;SDS011;10312;52.434;13.206;2024-03-17T06:41:21;13.05;;;1.85;;
20306;SDS011;10312;52.434;13.206;2024-03-17T06:43:46;12.80;;;1.90;;
20306;SDS011;10312;52.434;13.206;2024-03-17T06:46:12;12.00;;;1.90;;
20306;SDS011;10312;52.434;13.206;2024-03-17T06:48:39;16.48;;;2.40;;
20306;SDS011;10312;52.434;13.206;2024-03-17T06:51:04;13.15;;;2.55;;
20306;SDS011;10312;52.434;13.206;2024-03-17T06:53:31;18.65;;;2.42;;
20306;SDS011;10312;52.434;13.206;2024-03-17T06:55:59;13.05;;;1.75;;
20306;SDS011;10312;52.434;13.206;2024-03-17T06:58:25;11.50;;;3.53;;
20306;SDS011;10312;52.434;13.206;2024-03-17T07:00:53;15.15;;;2.13;;
20306;SDS011;10312;52.434;13.206;2024-03-17T07:03:19;11.95;;;1.73;;
20306;SDS011;10312;52.434;13.206;2024-03-17T07:05:54;13.80;;;1.90;;
20306;SDS011;10312;52.434;13.206;2024-03-17T07:08:21;21.10;;;2.33;;
20306;SDS011;10312;52.434;13.206;2024-03-17T07:13:29;14.70;;;2.28;;
20306;SDS011;10312;52.434;13.206;2024-03-17T07:15:56;15.52;;;2.13;;
20306;SDS011;10312;52.434;13.206;2024-03-17T07:18:22;14.10;;;2.25;;
20306;SDS011;10312;52.434;13.206;2024-03-17T07:20:47;16.45;;;2.40;;
20306;SDS011;10312;52.434;13.206;2024-03-17T07:23:14;12.75;;;1.98;;
20306;SDS011;10312;52.434;13.206;2024-03-17T07:25:56;10.80;;;2.33;;
20306;SDS011;10312;52.434;13.206;2024-03-17T07:28:23;10.38;;;2.03;;
20306;SDS011;10312;52.434;13.206;2024-03-17T07:30:49;10.95;;;2.15;;
20306;SDS011;10312;52.434;13.206;2024-03-17T07:33:17;16.48;;;2.10;;
20306;SDS011;10312;52.434;13.206;2024-03-17T07:35:50;12.82;;;2.13;;
20306;SDS011;10312;52.434;13.206;2024-03-17T07:38:17;8.00;;;2.10;;
20306;SDS011;10312;52.434;13.206;2024-03-17T07:40:45;13.23;;;2.28;;
20306;SDS011;10312;52.434;13.206;2024-03-17T07:43:19;12.73;;;2.15;;
20306;SDS011;10312;52.434;13.206;2024-03-17T07:45:45;11.23;;;1.52;;
20306;SDS011;10312;52.434;13.206;2024-03-17T07:48:13;19.08;;;3.55;;
20306;SDS011;10312;52.434;13.206;2024-03-17T07:50:38;13.80;;;2.10;;
20306;SDS011;10312;52.434;13.206;2024-03-17T07:53:05;11.40;;;1.90;;
20306;SDS011;10312;52.434;13.206;2024-03-17T07:55:31;11.93;;;1.90;;
20306;SDS011;10312;52.434;13.206;2024-03-17T07:57:56;10.85;;;2.97;;
20306;SDS011;10312;52.434;13.206;2024-03-17T08:00:22;11.27;;;1.73;;
20306;SDS011;10312;52.434;13.206;2024-03-17T08:02:48;14.88;;;1.98;;
20306;SDS011;10312;52.434;13.206;2024-03-17T08:05:14;18.40;;;2.85;;
20306;SDS011;10312;52.434;13.206;2024-03-17T08:07:40;11.35;;;1.63;;
20306;SDS011;10312;52.434;13.206;2024-03-17T08:10:07;15.23;;;2.50;;
20306;SDS011;10312;52.434;13.206;2024-03-17T08:12:33;16.60;;;1.95;;
20306;SDS011;10312;52.434;13.206;2024-03-17T08:14:59;13.80;;;1.77;;
20306;SDS011;10312;52.434;13.206;2024-03-17T08:17:25;10.15;;;2.55;;
20306;SDS011;10312;52.434;13.206;2024-03-17T08:19:51;10.70;;;2.15;;
20306;SDS011;10312;52.434;13.206;2024-03-17T08:22:17;7.22;;;1.45;;
20306;SDS011;10312;52.434;13.206;2024-03-17T08:24:43;9.10;;;2.38;;
20306;SDS011;10312;52.434;13.206;2024-03-17T08:27:09;10.30;;;1.67;;
20306;SDS011;10312;52.434;13.206;2024-03-17T08:29:34;11.98;;;2.20;;
20306;SDS011;10312;52.434;13.206;2024-03-17T08:32:00;11.98;;;2.20;;
20306;SDS011;10312;52.434;13.206;2024-03-17T08:34:26;9.25;;;1.88;;
20306;SDS011;10312;52.434;13.206;2024-03-17T08:36:53;11.90;;;1.80;;
20306;SDS011;10312;52.434;13.206;2024-03-17T08:39:20;9.93;;;1.77;;
20306;SDS011;10312;52.434;13.206;2024-03-17T08:41:46;8.40;;;1.85;;
20306;SDS011;10312;52.434;13.206;2024-03-17T08:44:12;18.00;;;2.28;;
20306;SDS011;10312;52.434;13.206;2024-03-17T08:46:38;6.65;;;1.52;;
20306;SDS011;10312;52.434;13.206;2024-03-17T08:49:03;13.27;;;1.92;;
20306;SDS011;10312;52.434;13.206;2024-03-17T08:51:29;9.13;;;1.58;;
20306;SDS011;10312;52.434;13.206;2024-03-17T08:53:55;6.97;;;1.77;;
20306;SDS011;10312;52.434;13.206;2024-03-17T08:56:22;7.85;;;1.50;;
20306;SDS011;10312;52.434;13.206;2024-03-17T08:58:48;9.25;;;1.58;;
20306;SDS011;10312;52.434;13.206;2024-03-17T09:01:14;8.00;;;1.52;;
20306;SDS011;10312;52.434;13.206;2024-03-17T09:03:41;8.57;;;1.50;;
20306;SDS011;10312;52.434;13.206;2024-03-17T09:06:15;9.93;;;1.75;;
20306;SDS011;10312;52.434;13.206;2024-03-17T09:08:41;8.38;;;1.27;;
20306;SDS011;10312;52.434;13.206;2024-03-17T09:11:11;11.27;;;1.88;;
20306;SDS011;10312;52.434;13.206;2024-03-17T09:13:38;7.45;;;1.40;;
20306;SDS011;10312;52.434;13.206;2024-03-17T09:16:04;8.98;;;1.48;;
20306;SDS011;10312;52.434;13.206;2024-03-17T09:18:33;8.15;;;1.58;;
20306;SDS011;10312;52.434;13.206;2024-03-17T09:23:33;10.10;;;1.80;;
20306;SDS011;10312;52.434;13.206;2024-03-17T09:26:03;7.00;;;2.08;;
20306;SDS011;10312;52.434;13.206;2024-03-17T09:28:30;9.95;;;1.95;;
20306;SDS011;10312;52.434;13.206;2024-03-17T09:30:56;9.85;;;1.70;;
20306;SDS011;10312;52.434;13.206;2024-03-17T09:33:22;10.73;;;1.85;;
20306;SDS011;10312;52.434;13.206;2024-03-17T09:35:58;8.23;;;1.75;;
20306;SDS011;10312;52.434;13.206;2024-03-17T09:38:25;8.50;;;1.55;;
20306;SDS011;10312;52.434;13.206;2024-03-17T09:40:52;5.03;;;1.00;;
20306;SDS011;10312;52.434;13.206;2024-03-17T09:43:19;9.73;;;1.65;;
20306;SDS011;10312;52.434;13.206;2024-03-17T09:45:46;7.88;;;1.17;;
20306;SDS011;10312;52.434;13.206;2024-03-17T09:48:15;11.10;;;2.17;;
20306;SDS011;10312;52.434;13.206;2024-03-17T09:50:54;10.13;;;1.33;;
20306;SDS011;10312;52.434;13.206;2024-03-17T09:53:24;7.40;;;1.15;;
20306;SDS011;10312;52.434;13.206;2024-03-17T09:56:08;4.40;;;1.15;;
20306;SDS011;10312;52.434;13.206;2024-03-17T09:58:35;8.25;;;1.55;;
20306;SDS011;10312;52.434;13.206;2024-03-17T10:01:01;7.57;;;1.50;;
20306;SDS011;10312;52.434;13.206;2024-03-17T10:06:12;6.95;;;1.50;;
20306;SDS011;10312;52.434;13.206;2024-03-17T10:08:45;6.28;;;1.17;;
20306;SDS011;10312;52.434;13.206;2024-03-17T10:11:12;4.95;;;1.00;;
20306;SDS011;10312;52.434;13.206;2024-03-17T10:13:39;7.47;;;1.23;;
20306;SDS011;10312;52.434;13.206;2024-03-17T10:16:05;8.05;;;3.58;;
20306;SDS011;10312;52.434;13.206;2024-03-17T10:18:31;7.90;;;1.40;;
20306;SDS011;10312;52.434;13.206;2024-03-17T10:20:57;6.00;;;1.52;;
20306;SDS011;10312;52.434;13.206;2024-03-17T10:23:24;8.43;;;1.23;;
20306;SDS011;10312;52.434;13.206;2024-03-17T10:25:50;8.55;;;1.08;;
20306;SDS011;10312;52.434;13.206;2024-03-17T10:28:16;5.30;;;1.30;;
20306;SDS011;10312;52.434;13.206;2024-03-17T10:30:56;10.15;;;1.77;;
20306;SDS011;10312;52.434;13.206;2024-03-17T10:33:23;6.72;;;1.05;;
20306;SDS011;10312;52.434;13.206;2024-03-17T10:35:50;6.35;;;1.20;;
20306;SDS011;10312;52.434;13.206;2024-03-17T10:38:23;5.88;;;0.98;;
20306;SDS011;10312;52.434;13.206;2024-03-17T10:40:49;6.07;;;1.02;;
20306;SDS011;10312;52.434;13.206;2024-03-17T10:43:15;8.48;;;1.42;;
20306;SDS011;10312;52.434;13.206;2024-03-17T10:45:41;5.45;;;1.23;;
20306;SDS011;10312;52.434;13.206;2024-03-17T10:48:08;4.82;;;1.05;;
20306;SDS011;10312;52.434;13.206;2024-03-17T10:50:38;5.25;;;1.08;;
20306;SDS011;10312;52.434;13.206;2024-03-17T10:53:06;5.43;;;1.35;;
20306;SDS011;10312;52.434;13.206;2024-03-17T10:55:42;5.50;;;1.20;;
20306;SDS011;10312;52.434;13.206;2024-03-17T10:58:27;8.48;;;1.40;;
20306;SDS011;10312;52.434;13.206;2024-03-17T11:01:02;6.13;;;1.15;;
20306;SDS011;10312;52.434;13.206;2024-03-17T11:03:31;8.73;;;1.52;;
20306;SDS011;10312;52.434;13.206;2024-03-17T11:05:57;4.32;;;1.13;;
20306;SDS011;10312;52.434;13.206;2024-03-17T11:08:23;6.65;;;1.50;;
20306;SDS011;10312;52.434;13.206;2024-03-17T11:10:50;4.88;;;1.10;;
20306;SDS011;10312;52.434;13.206;2024-03-17T11:13:26;7.22;;;1.58;;
20306;SDS011;10312;52.434;13.206;2024-03-17T11:15:53;5.60;;;1.13;;
20306;SDS011;10312;52.434;13.206;2024-03-17T11:20:56;5.85;;;1.20;;
20306;SDS011;10312;52.434;13.206;2024-03-17T11:23:27;6.80;;;1.42;;
20306;SDS011;10312;52.434;13.206;2024-03-17T11:25:54;5.20;;;1.10;;
20306;SDS011;10312;52.434;13.206;2024-03-17T11:36:56;7.25;;;1.40;;
20306;SDS011;10312;52.434;13.206;2024-03-17T11:42:12;6.80;;;1.27;;
20306;SDS011;10312;52.434;13.206;2024-03-17T11:44:41;8.18;;;1.17;;
20306;SDS011;10312;52.434;13.206;2024-03-17T11:47:08;4.97;;;1.23;;
20306;SDS011;10312;52.434;13.206;2024-03-17T11:49:34;4.75;;;1.23;;
20306;SDS011;10312;52.434;13.206;2024-03-17T11:52:08;6.03;;;1.00;;
20306;SDS011;10312;52.434;13.206;2024-03-17T11:54:42;5.72;;;1.23;;
20306;SDS011;10312;52.434;13.206;2024-03-17T11:57:10;11.45;;;6.30;;
20306;SDS011;10312;52.434;13.206;2024-03-17T11:59:37;5.70;;;1.83;;
20306;SDS011;10312;52.434;13.206;2024-03-17T12:02:15;6.05;;;1.35;;
20306;SDS011;10312;52.434;13.206;2024-03-17T12:04:43;6.57;;;1.35;;
20306;SDS011;10312;52.434;13.206;2024-03-17T12:07:13;6.60;;;1.33;;
20306;SDS011;10312;52.434;13.206;2024-03-17T12:09:43;6.88;;;1.35;;
20306;SDS011;10312;52.434;13.206;2024-03-17T12:12:22;5.53;;;1.27;;
20306;SDS011;10312;52.434;13.206;2024-03-17T12:15:02;4.03;;;1.27;;
20306;SDS011;10312;52.434;13.206;2024-03-17T12:17:31;5.47;;;1.27;;
20306;SDS011;10312;52.434;13.206;2024-03-17T12:19:57;4.03;;;1.05;;
20306;SDS011;10312;52.434;13.206;2024-03-17T12:22:25;6.80;;;1.48;;
20306;SDS011;10312;52.434;13.206;2024-03-17T12:24:53;5.20;;;1.40;;
20306;SDS011;10312;52.434;13.206;2024-03-17T12:27:23;5.00;;;1.50;;
20306;SDS011;10312;52.434;13.206;2024-03-17T12:29:51;6.28;;;1.20;;
20306;SDS011;10312;52.434;13.206;2024-03-17T12:34:51;5.80;;;1.38;;
20306;SDS011;10312;52.434;13.206;2024-03-17T12:39:45;5.40;;;1.15;;
20306;SDS011;10312;52.434;13.206;2024-03-17T12:42:24;8.65;;;1.10;;
20306;SDS011;10312;52.434;13.206;2024-03-17T12:44:51;5.50;;;1.00;;
20306;SDS011;10312;52.434;13.206;2024-03-17T12:47:24;7.18;;;1.40;;
20306;SDS011;10312;52.434;13.206;2024-03-17T12:49:58;4.57;;;1.05;;
20306;SDS011;10312;52.434;13.206;2024-03-17T12:54:57;4.65;;;0.90;;
20306;SDS011;10312;52.434;13.206;2024-03-17T12:57:44;3.92;;;0.75;;
20306;SDS011;10312;52.434;13.206;2024-03-17T13:00:30;7.63;;;1.23;;
20306;SDS011;10312;52.434;13.206;2024-03-17T13:03:08;7.95;;;0.95;;
20306;SDS011;10312;52.434;13.206;2024-03-17T13:05:34;4.90;;;1.25;;
20306;SDS011;10312;52.434;13.206;2024-03-17T13:08:00;5.53;;;1.35;;
20306;SDS011;10312;52.434;13.206;2024-03-17T13:10:27;5.30;;;1.20;;
20306;SDS011;10312;52.434;13.206;2024-03-17T13:13:01;3.90;;;0.73;;
20306;SDS011;10312;52.434;13.206;2024-03-17T13:15:30;4.20;;;1.13;;
20306;SDS011;10312;52.434;13.206;2024-03-17T13:17:56;4.45;;;0.90;;
20306;SDS011;10312;52.434;13.206;2024-03-17T13:20:23;3.88;;;1.00;;
20306;SDS011;10312;52.434;13.206;2024-03-17T13:22:49;3.17;;;0.88;;
20306;SDS011;10312;52.434;13.206;2024-03-17T13:25:15;5.30;;;1.17;;
20306;SDS011;10312;52.434;13.206;2024-03-17T13:27:43;3.03;;;0.82;;
20306;SDS011;10312;52.434;13.206;2024-03-17T13:30:14;4.22;;;1.00;;
20306;SDS011;10312;52.434;13.206;2024-03-17T13:32:40;5.68;;;1.27;;
20306;SDS011;10312;52.434;13.206;2024-03-17T13:35:20;4.00;;;0.93;;
20306;SDS011;10312;52.434;13.206;2024-03-17T13:37:47;6.07;;;1.40;;
20306;SDS011;10312;52.434;13.206;2024-03-17T13:40:14;3.90;;;0.85;;
20306;SDS011;10312;52.434;13.206;2024-03-17T13:42:45;3.55;;;0.95;;
20306;SDS011;10312;52.434;13.206;2024-03-17T13:45:11;6.13;;;1.20;;
20306;SDS011;10312;52.434;13.206;2024-03-17T13:47:38;5.95;;;0.95;;
20306;SDS011;10312;52.434;13.206;2024-03-17T13:50:05;4.05;;;0.88;;
20306;SDS011;10312;52.434;13.206;2024-03-17T13:52:42;7.13;;;1.05;;
20306;SDS011;10312;52.434;13.206;2024-03-17T13:55:13;8.18;;;1.23;;
20306;SDS011;10312;52.434;13.206;2024-03-17T13:57:43;5.43;;;0.88;;
20306;SDS011;10312;52.434;13.206;2024-03-17T14:00:10;4.68;;;1.20;;
20306;SDS011;10312;52.434;13.206;2024-03-17T14:02:44;4.50;;;1.00;;
20306;SDS011;10312;52.434;13.206;2024-03-17T14:05:14;5.25;;;1.17;;
20306;SDS011;10312;52.434;13.206;2024-03-17T14:07:41;6.38;;;1.08;;
20306;SDS011;10312;52.434;13.206;2024-03-17T14:10:08;7.10;;;1.15;;
20306;SDS011;10312;52.434;13.206;2024-03-17T14:12:35;4.82;;;0.95;;
20306;SDS011;10312;52.434;13.206;2024-03-17T14:15:05;3.60;;;0.90;;
20306;SDS011;10312;52.434;13.206;2024-03-17T14:17:31;5.50;;;1.33;;
20306;SDS011;10312;52.434;13.206;2024-03-17T14:19:56;2.53;;;0.68;;
20306;SDS011;10312;52.434;13.206;2024-03-17T14:22:22;3.83;;;0.80;;
20306;SDS011;10312;52.434;13.206;2024-03-17T14:24:48;6.22;;;1.10;;
20306;SDS011;10312;52.434;13.206;2024-03-17T14:27:16;4.30;;;0.73;;
20306;SDS011;10312;52.434;13.206;2024-03-17T14:29:43;3.05;;;0.75;;
20306;SDS011;10312;52.434;13.206;2024-03-17T14:32:08;4.43;;;0.98;;
20306;SDS011;10312;52.434;13.206;2024-03-17T14:34:34;4.93;;;0.93;;
20306;SDS011;10312;52.434;13.206;2024-03-17T14:37:02;6.45;;;1.02;;
20306;SDS011;10312;52.434;13.206;2024-03-17T14:39:29;6.45;;;2.15;;
20306;SDS011;10312;52.434;13.206;2024-03-17T14:41:55;3.42;;;0.85;;
20306;SDS011;10312;52.434;13.206;2024-03-17T14:44:21;5.15;;;1.10;;
20306;SDS011;10312;52.434;13.206;2024-03-17T14:46:47;2.58;;;0.73;;
20306;SDS011;10312;52.434;13.206;2024-03-17T14:49:20;4.50;;;1.15;;
20306;SDS011;10312;52.434;13.206;2024-03-17T14:51:46;4.88;;;1.00;;
20306;SDS011;10312;52.434;13.206;2024-03-17T14:54:12;3.60;;;0.93;;
20306;SDS011;10312;52.434;13.206;2024-03-17T14:56:38;3.65;;;0.77;;
20306;SDS011;10312;52.434;13.206;2024-03-17T14:59:05;3.00;;;0.90;;
20306;SDS011;10312;52.434;13.206;2024-03-17T15:01:31;6.00;;;1.10;;